Mead, Nebraska
Current Conditions -  °F | °C
As of 8:35 PM on Tuesday 21 Oct 2014 (Local Time) from KAHQ Reporting Station
Clear Clear  
Wind Chill: 55°   Ceiling: Unl
Heat Index: 55°   Visibility: 10mi
Dew Point: 39°   Wind: 7mph
Humidity: 54%   Direction: 130°SE
Pressure: 30.04"   Gusts: NA
Location:  41.23°N, 96.49°W
Report Text: KAHQ 220135Z AUTO 13006KT 10SM CLR 13/04 A3004 RMK AO2 T01300040
Loading
Personal Weather Stations






























Interactive Weather Map New forecast layout! Learn more

10-Day Weather Forecast

Advertisements
Track Severe Weather on mobile